Flight Track Log - Related Links

Times and Time Zones

All times are in EDT time to prevent confusion due to time zone crossing. See the EJA590 flight status page for this flight to view local times or setup timezone preferences in your user account.

Time Position Orientation Groundspeed Altitude Reporting Facility
EDT Latitude Longitude Course Direction KTS MPH feet Rate Location/Type
Sun 08:11:27 AM 43.6500 -79.6500 230° Southwest 190 219 2,500  Level Toronto Center
Sun 08:12:27 AM 43.6000 -79.7333 156° South 250 288 6,300 3,800 Climbing Toronto Center
Sun 08:13:27 AM 43.5167 -79.6833 121° Southeast 310 357 10,100 3,850 Climbing Toronto Center
Sun 08:14:27 AM 43.4667 -79.5667 90° East 340 391 14,000 3,400 Climbing Toronto Center
Sun 08:15:27 AM 43.4667 -79.4500 98° East 350 403 16,900 2,700 Climbing Toronto Center
Sun 08:16:27 AM 43.4500 -79.2833 99° East 380 437 19,400 2,600 Climbing Toronto Center
Sun 08:17:27 AM 43.4333 -79.1333 90° East 410 472 22,100 2,600 Climbing Toronto Center
Sun 08:18:27 AM 43.4333 -78.9667 112° Southeast 420 483 24,600 2,350 Climbing Toronto Center
Sun 08:19:27 AM 43.3833 -78.8000 131° Southeast 450 518 26,800 2,200 Climbing Toronto Center
Sun 08:20:27 AM 43.3000 -78.6667 125° Southeast 470 541 29,000 2,229 Climbing Toronto Center
Sun 08:21:12 AM 43.2642 -78.5961 123° Southeast 465 535 30,700 1,143 Climbing Cleveland Center
Sun 08:22:12 AM 43.1906 -78.4419 125° Southeast 478 550 31,000 150 Climbing Cleveland Center
Sun 08:23:12 AM 43.1019 -78.2686 124° Southeast 495 570 31,000  Level Cleveland Center
Sun 08:24:12 AM 43.0236 -78.1097 123° Southeast 503 579 31,000  Level Cleveland Center
Sun 08:25:12 AM 42.9450 -77.9456 108° East 508 585 31,000  Level Cleveland Center
Sun 08:26:12 AM 42.9011 -77.7658 106° East 498 573 31,000  Level Cleveland Center
Sun 08:27:12 AM 42.8631 -77.5833 106° East 498 573 31,000  Level Cleveland Center
Sun 08:29:02 AM 42.7961 -77.2656 106° East 519 597 31,000  Level Boston Center
Sun 08:30:02 AM 42.7561 -77.0783 106° East 511 588 31,000  Level Boston Center
Sun 08:31:02 AM 42.7175 -76.8917 107° East 511 588 31,000  Level Boston Center
Sun 08:32:02 AM 42.6767 -76.7050 109° East 506 582 31,000 -100 Level Boston Center
Sun 08:33:02 AM 42.6294 -76.5183 111° Southeast 511 588 30,800 -800 Descending Boston Center
Sun 08:34:02 AM 42.5739 -76.3200 111° Southeast 511 588 29,400 -1,400 Descending Boston Center
Sun 08:35:02 AM 42.5272 -76.1564 111° Southeast 511 588 28,000 -1,450 Descending Boston Center
Sun 08:36:02 AM 42.4747 -75.9703 112° Southeast 511 588 26,500 -1,550 Descending Boston Center
Sun 08:37:02 AM 42.4219 -75.7900 111° Southeast 521 600 24,900 -1,600 Descending Boston Center
Sun 08:38:02 AM 42.3689 -75.6044 112° Southeast 521 600 23,300 -1,650 Descending Boston Center
Sun 08:39:02 AM 42.3172 -75.4278 110° East 515 593 21,600 -1,650 Descending Boston Center
Sun 08:40:02 AM 42.2678 -75.2486 113° Southeast 515 593 20,000 -1,650 Descending Boston Center
Sun 08:41:02 AM 42.2172 -75.0894 113° Southeast 489 563 18,300 -1,000 Descending Boston Center
Sun 08:42:02 AM 42.1686 -74.9361 119° Southeast 461 531 18,000 -150 Descending Boston Center
Sun 08:43:02 AM 42.1053 -74.7853 120° Southeast 456 525 18,000 -400 Level Boston Center
Sun 08:44:02 AM 42.0336 -74.6175 123° Southeast 467 537 17,200 -1,100 Descending Boston Center
Sun 08:45:02 AM 41.9672 -74.4783 138° Southeast 458 527 15,800 -1,400 Descending Boston Center
Sun 08:46:02 AM 41.8856 -74.3811 140° Southeast 432 497 14,400 -1,500 Descending Boston Center
Sun 08:47:02 AM 41.7917 -74.2750 140° Southeast 421 484 12,800 -1,500 Descending Boston Center
Sun 08:48:02 AM 41.7158 -74.1894 141° Southeast 404 465 11,400 -1,550 Descending Boston Center
Sun 08:49:02 AM 41.6400 -74.1067 138° Southeast 366 421 9,700 -1,809 Descending Boston Center
Sun 08:50:18 AM 41.5500 -74.0000 143° Southeast 318 366 7,300 -1,662 Descending New York TRACON
Sun 08:51:12 AM 41.4833 -73.9333 143° Southeast 294 338 6,100 -895 Descending New York TRACON
Sun 08:52:12 AM 41.4167 -73.8667 143° Southeast 288 331 5,600 -1,000 Descending New York TRACON
Sun 08:53:12 AM 41.3667 -73.8167 143° Southeast 279 321 4,100 -1,250 Descending New York TRACON
Sun 08:54:12 AM 41.3000 -73.7500 153° Southeast 263 303 3,100 -556 Descending New York TRACON
Sun 08:55:00 AM 41.2500 -73.7167 143° Southeast 258 297 3,100  Level New York TRACON
Sun 08:56:00 AM 41.2000 -73.6667 143° Southeast 261 300 3,100  Level New York TRACON
Sun 08:57:00 AM 41.1333 -73.6000 169° South 269 310 3,100  Level New York TRACON
Sun 08:57:54 AM 41.0667 -73.5833 153° Southeast 247 284 3,100 -111 Level New York TRACON
Sun 08:58:48 AM 41.0167 -73.5500 229° Southwest 221 254 2,900 -526 Descending New York TRACON
Sun 08:59:48 AM 40.9833 -73.6000 270° West 176 203 2,100 -474 Descending New York TRACON
Sun 09:00:42 AM 40.9833 -73.6500 339° North 161 185 2,000 -263 Descending New York TRACON
Sun 09:01:42 AM 41.0167 -73.6667 339° North 129 148 1,600 -400 Descending New York TRACON

Login

Don't have an account? Register now (free) for customized features, flight alerts, and more!